sensor_id;sensor_type;location;lat;lon;timestamp;P1;durP1;ratioP1;P2;durP2;ratioP2
819;SDS011;392;48.838;2.322;2023-08-30T00:01:18;5.33;;;4.90;;
819;SDS011;392;48.838;2.322;2023-08-30T00:03:45;5.60;;;5.20;;
819;SDS011;392;48.838;2.322;2023-08-30T00:06:14;4.90;;;4.50;;
819;SDS011;392;48.838;2.322;2023-08-30T00:08:42;5.73;;;4.70;;
819;SDS011;392;48.838;2.322;2023-08-30T00:11:09;5.17;;;4.70;;
819;SDS011;392;48.838;2.322;2023-08-30T00:13:36;5.60;;;4.60;;
819;SDS011;392;48.838;2.322;2023-08-30T00:16:03;5.60;;;5.10;;
819;SDS011;392;48.838;2.322;2023-08-30T00:18:31;5.07;;;4.60;;
819;SDS011;392;48.838;2.322;2023-08-30T00:20:58;5.50;;;4.73;;
819;SDS011;392;48.838;2.322;2023-08-30T00:23:27;4.80;;;4.40;;
819;SDS011;392;48.838;2.322;2023-08-30T00:25:54;4.77;;;4.47;;
819;SDS011;392;48.838;2.322;2023-08-30T00:28:21;5.10;;;4.60;;
819;SDS011;392;48.838;2.322;2023-08-30T00:30:52;5.27;;;4.80;;
819;SDS011;392;48.838;2.322;2023-08-30T00:33:20;5.20;;;4.70;;
819;SDS011;392;48.838;2.322;2023-08-30T00:35:54;5.30;;;4.87;;
819;SDS011;392;48.838;2.322;2023-08-30T00:38:22;4.70;;;3.93;;
819;SDS011;392;48.838;2.322;2023-08-30T00:40:51;5.60;;;4.67;;
819;SDS011;392;48.838;2.322;2023-08-30T00:43:18;4.70;;;4.30;;
819;SDS011;392;48.838;2.322;2023-08-30T00:45:46;5.20;;;4.70;;
819;SDS011;392;48.838;2.322;2023-08-30T00:48:15;4.30;;;4.00;;
819;SDS011;392;48.838;2.322;2023-08-30T00:50:44;4.50;;;4.10;;
819;SDS011;392;48.838;2.322;2023-08-30T00:53:12;4.50;;;4.20;;
819;SDS011;392;48.838;2.322;2023-08-30T00:55:41;6.10;;;3.90;;
819;SDS011;392;48.838;2.322;2023-08-30T00:58:11;4.97;;;4.20;;
819;SDS011;392;48.838;2.322;2023-08-30T01:00:39;3.80;;;3.50;;
819;SDS011;392;48.838;2.322;2023-08-30T01:03:09;7.97;;;4.27;;
819;SDS011;392;48.838;2.322;2023-08-30T01:05:36;4.87;;;4.37;;
819;SDS011;392;48.838;2.322;2023-08-30T01:08:03;4.80;;;4.40;;
819;SDS011;392;48.838;2.322;2023-08-30T01:10:36;5.63;;;4.30;;
819;SDS011;392;48.838;2.322;2023-08-30T01:13:15;4.67;;;4.17;;
819;SDS011;392;48.838;2.322;2023-08-30T01:15:46;5.00;;;4.20;;
819;SDS011;392;48.838;2.322;2023-08-30T01:18:16;6.37;;;4.20;;
819;SDS011;392;48.838;2.322;2023-08-30T01:20:45;5.07;;;4.67;;
819;SDS011;392;48.838;2.322;2023-08-30T01:23:17;4.37;;;4.07;;
819;SDS011;392;48.838;2.322;2023-08-30T01:25:55;4.27;;;3.97;;
819;SDS011;392;48.838;2.322;2023-08-30T01:28:32;3.77;;;3.43;;
819;SDS011;392;48.838;2.322;2023-08-30T01:31:02;4.43;;;3.67;;
819;SDS011;392;48.838;2.322;2023-08-30T01:33:33;4.97;;;4.43;;
819;SDS011;392;48.838;2.322;2023-08-30T01:36:01;3.83;;;3.53;;
819;SDS011;392;48.838;2.322;2023-08-30T01:38:32;3.80;;;3.50;;
819;SDS011;392;48.838;2.322;2023-08-30T01:41:01;3.50;;;3.20;;
819;SDS011;392;48.838;2.322;2023-08-30T01:43:29;4.13;;;3.80;;
819;SDS011;392;48.838;2.322;2023-08-30T01:45:59;4.03;;;3.60;;
819;SDS011;392;48.838;2.322;2023-08-30T01:48:29;3.77;;;3.47;;
819;SDS011;392;48.838;2.322;2023-08-30T01:51:01;5.13;;;3.90;;
819;SDS011;392;48.838;2.322;2023-08-30T01:53:29;4.00;;;3.60;;
819;SDS011;392;48.838;2.322;2023-08-30T01:55:58;4.30;;;3.80;;
819;SDS011;392;48.838;2.322;2023-08-30T01:58:25;3.67;;;3.37;;
819;SDS011;392;48.838;2.322;2023-08-30T02:00:54;4.33;;;3.50;;
819;SDS011;392;48.838;2.322;2023-08-30T02:03:23;4.57;;;4.17;;
819;SDS011;392;48.838;2.322;2023-08-30T02:05:52;4.00;;;3.70;;
819;SDS011;392;48.838;2.322;2023-08-30T02:08:35;3.57;;;3.27;;
819;SDS011;392;48.838;2.322;2023-08-30T02:11:11;3.93;;;3.57;;
819;SDS011;392;48.838;2.322;2023-08-30T02:13:43;3.80;;;3.50;;
819;SDS011;392;48.838;2.322;2023-08-30T02:16:13;4.23;;;3.90;;
819;SDS011;392;48.838;2.322;2023-08-30T02:18:43;4.43;;;3.80;;
819;SDS011;392;48.838;2.322;2023-08-30T02:21:11;3.87;;;3.57;;
819;SDS011;392;48.838;2.322;2023-08-30T02:23:39;5.40;;;3.50;;
819;SDS011;392;48.838;2.322;2023-08-30T02:26:06;5.47;;;4.37;;
819;SDS011;392;48.838;2.322;2023-08-30T02:28:34;3.93;;;3.63;;
819;SDS011;392;48.838;2.322;2023-08-30T02:31:05;3.97;;;2.90;;
819;SDS011;392;48.838;2.322;2023-08-30T02:33:34;2.90;;;2.70;;
819;SDS011;392;48.838;2.322;2023-08-30T02:36:03;3.33;;;3.03;;
819;SDS011;392;48.838;2.322;2023-08-30T02:38:30;3.13;;;2.93;;
819;SDS011;392;48.838;2.322;2023-08-30T02:40:58;3.10;;;2.80;;
819;SDS011;392;48.838;2.322;2023-08-30T02:43:25;3.57;;;3.27;;
819;SDS011;392;48.838;2.322;2023-08-30T02:45:52;3.53;;;3.23;;
819;SDS011;392;48.838;2.322;2023-08-30T02:48:20;3.40;;;3.10;;
819;SDS011;392;48.838;2.322;2023-08-30T02:50:48;3.13;;;2.70;;
819;SDS011;392;48.838;2.322;2023-08-30T02:53:16;3.37;;;3.07;;
819;SDS011;392;48.838;2.322;2023-08-30T02:55:43;3.70;;;2.67;;
819;SDS011;392;48.838;2.322;2023-08-30T02:58:10;2.87;;;2.67;;
819;SDS011;392;48.838;2.322;2023-08-30T03:00:38;3.23;;;2.87;;
819;SDS011;392;48.838;2.322;2023-08-30T03:03:07;2.90;;;2.70;;
819;SDS011;392;48.838;2.322;2023-08-30T03:05:35;2.93;;;2.73;;
819;SDS011;392;48.838;2.322;2023-08-30T03:08:05;2.80;;;2.60;;
819;SDS011;392;48.838;2.322;2023-08-30T03:10:33;3.70;;;3.40;;
819;SDS011;392;48.838;2.322;2023-08-30T03:13:00;3.20;;;2.97;;
819;SDS011;392;48.838;2.322;2023-08-30T03:15:30;3.63;;;3.13;;
819;SDS011;392;48.838;2.322;2023-08-30T03:17:58;3.47;;;3.20;;
819;SDS011;392;48.838;2.322;2023-08-30T03:20:26;5.53;;;3.13;;
819;SDS011;392;48.838;2.322;2023-08-30T03:22:55;2.67;;;2.57;;
819;SDS011;392;48.838;2.322;2023-08-30T03:25:27;3.30;;;3.10;;
819;SDS011;392;48.838;2.322;2023-08-30T03:27:55;3.47;;;3.27;;
819;SDS011;392;48.838;2.322;2023-08-30T03:30:23;4.07;;;3.30;;
819;SDS011;392;48.838;2.322;2023-08-30T03:32:52;3.80;;;3.50;;
819;SDS011;392;48.838;2.322;2023-08-30T03:35:20;3.37;;;2.87;;
819;SDS011;392;48.838;2.322;2023-08-30T03:37:49;3.17;;;2.97;;
819;SDS011;392;48.838;2.322;2023-08-30T03:40:16;3.80;;;3.30;;
819;SDS011;392;48.838;2.322;2023-08-30T03:42:45;4.13;;;3.53;;
819;SDS011;392;48.838;2.322;2023-08-30T03:45:13;5.57;;;3.50;;
819;SDS011;392;48.838;2.322;2023-08-30T03:47:41;3.60;;;3.40;;
819;SDS011;392;48.838;2.322;2023-08-30T03:50:08;3.33;;;3.10;;
819;SDS011;392;48.838;2.322;2023-08-30T03:52:35;5.07;;;3.77;;
819;SDS011;392;48.838;2.322;2023-08-30T03:55:03;4.37;;;3.63;;
819;SDS011;392;48.838;2.322;2023-08-30T03:57:31;3.47;;;3.17;;
819;SDS011;392;48.838;2.322;2023-08-30T04:00:03;3.73;;;3.23;;
819;SDS011;392;48.838;2.322;2023-08-30T04:02:39;3.10;;;2.80;;
819;SDS011;392;48.838;2.322;2023-08-30T04:05:07;3.47;;;3.17;;
819;SDS011;392;48.838;2.322;2023-08-30T04:07:35;5.47;;;3.23;;
819;SDS011;392;48.838;2.322;2023-08-30T04:10:02;3.80;;;3.47;;
819;SDS011;392;48.838;2.322;2023-08-30T04:12:32;5.67;;;3.40;;
819;SDS011;392;48.838;2.322;2023-08-30T04:15:00;4.00;;;3.43;;
819;SDS011;392;48.838;2.322;2023-08-30T04:17:31;3.63;;;3.20;;
819;SDS011;392;48.838;2.322;2023-08-30T04:19:59;3.17;;;2.97;;
819;SDS011;392;48.838;2.322;2023-08-30T04:22:26;6.13;;;3.93;;
819;SDS011;392;48.838;2.322;2023-08-30T04:24:53;3.53;;;3.23;;
819;SDS011;392;48.838;2.322;2023-08-30T04:27:21;3.13;;;2.93;;
819;SDS011;392;48.838;2.322;2023-08-30T04:29:48;3.63;;;3.30;;
819;SDS011;392;48.838;2.322;2023-08-30T04:32:17;5.17;;;3.97;;
819;SDS011;392;48.838;2.322;2023-08-30T04:34:44;7.30;;;3.83;;
819;SDS011;392;48.838;2.322;2023-08-30T04:37:12;5.63;;;3.30;;
819;SDS011;392;48.838;2.322;2023-08-30T04:39:41;3.77;;;3.13;;
819;SDS011;392;48.838;2.322;2023-08-30T04:42:08;3.47;;;3.17;;
819;SDS011;392;48.838;2.322;2023-08-30T04:44:35;3.90;;;3.53;;
819;SDS011;392;48.838;2.322;2023-08-30T04:47:03;4.80;;;3.47;;
819;SDS011;392;48.838;2.322;2023-08-30T04:49:34;3.83;;;3.50;;
819;SDS011;392;48.838;2.322;2023-08-30T04:52:01;3.80;;;3.50;;
819;SDS011;392;48.838;2.322;2023-08-30T04:54:30;3.90;;;3.60;;
819;SDS011;392;48.838;2.322;2023-08-30T04:56:58;5.27;;;3.40;;
819;SDS011;392;48.838;2.322;2023-08-30T04:59:26;3.50;;;3.20;;
819;SDS011;392;48.838;2.322;2023-08-30T05:01:53;4.40;;;4.00;;
819;SDS011;392;48.838;2.322;2023-08-30T05:04:23;5.00;;;4.33;;
819;SDS011;392;48.838;2.322;2023-08-30T05:06:53;3.53;;;3.23;;
819;SDS011;392;48.838;2.322;2023-08-30T05:09:21;4.83;;;4.10;;
819;SDS011;392;48.838;2.322;2023-08-30T05:11:50;4.27;;;3.90;;
819;SDS011;392;48.838;2.322;2023-08-30T05:14:17;4.30;;;3.90;;
819;SDS011;392;48.838;2.322;2023-08-30T05:16:45;4.20;;;3.80;;
819;SDS011;392;48.838;2.322;2023-08-30T05:19:12;4.80;;;4.40;;
819;SDS011;392;48.838;2.322;2023-08-30T05:21:39;4.33;;;4.03;;
819;SDS011;392;48.838;2.322;2023-08-30T05:24:08;4.40;;;4.00;;
819;SDS011;392;48.838;2.322;2023-08-30T05:26:36;6.30;;;4.13;;
819;SDS011;392;48.838;2.322;2023-08-30T05:29:04;5.30;;;4.40;;
819;SDS011;392;48.838;2.322;2023-08-30T05:31:31;5.23;;;4.60;;
819;SDS011;392;48.838;2.322;2023-08-30T05:34:18;5.13;;;4.73;;
819;SDS011;392;48.838;2.322;2023-08-30T05:37:04;5.30;;;4.90;;
819;SDS011;392;48.838;2.322;2023-08-30T05:39:56;5.83;;;3.33;;
819;SDS011;392;48.838;2.322;2023-08-30T05:42:24;4.80;;;4.40;;
819;SDS011;392;48.838;2.322;2023-08-30T05:44:52;5.07;;;3.47;;
819;SDS011;392;48.838;2.322;2023-08-30T05:47:20;4.33;;;3.93;;
819;SDS011;392;48.838;2.322;2023-08-30T05:49:48;5.30;;;4.80;;
819;SDS011;392;48.838;2.322;2023-08-30T05:52:15;4.30;;;4.00;;
819;SDS011;392;48.838;2.322;2023-08-30T05:54:43;4.60;;;4.10;;
819;SDS011;392;48.838;2.322;2023-08-30T05:57:12;4.93;;;4.63;;
819;SDS011;392;48.838;2.322;2023-08-30T05:59:39;6.33;;;4.93;;
819;SDS011;392;48.838;2.322;2023-08-30T06:02:06;3.80;;;3.50;;
819;SDS011;392;48.838;2.322;2023-08-30T06:04:35;4.03;;;3.63;;
819;SDS011;392;48.838;2.322;2023-08-30T06:07:03;3.50;;;3.20;;
819;SDS011;392;48.838;2.322;2023-08-30T06:09:30;4.07;;;3.77;;
819;SDS011;392;48.838;2.322;2023-08-30T06:11:58;4.03;;;3.73;;
819;SDS011;392;48.838;2.322;2023-08-30T06:14:26;4.83;;;4.33;;
819;SDS011;392;48.838;2.322;2023-08-30T06:16:54;6.10;;;4.00;;
819;SDS011;392;48.838;2.322;2023-08-30T06:19:21;3.80;;;3.50;;
819;SDS011;392;48.838;2.322;2023-08-30T06:21:49;3.77;;;3.47;;
819;SDS011;392;48.838;2.322;2023-08-30T06:24:16;6.70;;;3.77;;
819;SDS011;392;48.838;2.322;2023-08-30T06:26:43;5.03;;;4.53;;
819;SDS011;392;48.838;2.322;2023-08-30T06:29:11;5.00;;;4.60;;
819;SDS011;392;48.838;2.322;2023-08-30T06:31:39;3.80;;;3.37;;
819;SDS011;392;48.838;2.322;2023-08-30T06:34:07;3.87;;;3.57;;
819;SDS011;392;48.838;2.322;2023-08-30T06:36:35;3.83;;;3.43;;
819;SDS011;392;48.838;2.322;2023-08-30T06:39:02;5.07;;;3.77;;
819;SDS011;392;48.838;2.322;2023-08-30T06:41:30;3.40;;;3.20;;
819;SDS011;392;48.838;2.322;2023-08-30T06:43:58;3.60;;;3.10;;
819;SDS011;392;48.838;2.322;2023-08-30T06:46:25;3.50;;;3.20;;
819;SDS011;392;48.838;2.322;2023-08-30T06:48:53;3.73;;;3.33;;
819;SDS011;392;48.838;2.322;2023-08-30T06:51:21;3.80;;;3.50;;
819;SDS011;392;48.838;2.322;2023-08-30T06:53:48;5.27;;;4.70;;
819;SDS011;392;48.838;2.322;2023-08-30T06:56:15;4.30;;;3.70;;
819;SDS011;392;48.838;2.322;2023-08-30T06:58:43;3.30;;;3.00;;
819;SDS011;392;48.838;2.322;2023-08-30T07:01:10;3.10;;;2.80;;
819;SDS011;392;48.838;2.322;2023-08-30T07:03:37;3.03;;;2.73;;
819;SDS011;392;48.838;2.322;2023-08-30T07:06:06;3.43;;;3.03;;
819;SDS011;392;48.838;2.322;2023-08-30T07:08:34;3.50;;;2.80;;
819;SDS011;392;48.838;2.322;2023-08-30T07:11:01;6.50;;;5.90;;
819;SDS011;392;48.838;2.322;2023-08-30T07:13:29;4.60;;;3.40;;
819;SDS011;392;48.838;2.322;2023-08-30T07:15:56;2.90;;;2.70;;
819;SDS011;392;48.838;2.322;2023-08-30T07:18:23;4.93;;;4.10;;
819;SDS011;392;48.838;2.322;2023-08-30T07:20:51;3.10;;;2.80;;
819;SDS011;392;48.838;2.322;2023-08-30T07:23:19;3.70;;;2.70;;
819;SDS011;392;48.838;2.322;2023-08-30T07:25:46;2.97;;;2.70;;
819;SDS011;392;48.838;2.322;2023-08-30T07:28:14;2.53;;;2.43;;
819;SDS011;392;48.838;2.322;2023-08-30T07:30:41;3.13;;;2.83;;
819;SDS011;392;48.838;2.322;2023-08-30T07:33:08;2.50;;;2.33;;
819;SDS011;392;48.838;2.322;2023-08-30T07:35:35;2.77;;;2.30;;
819;SDS011;392;48.838;2.322;2023-08-30T07:38:04;3.20;;;2.53;;
819;SDS011;392;48.838;2.322;2023-08-30T07:40:33;2.37;;;2.27;;
819;SDS011;392;48.838;2.322;2023-08-30T07:43:00;3.47;;;3.27;;
819;SDS011;392;48.838;2.322;2023-08-30T07:45:28;2.20;;;2.10;;
819;SDS011;392;48.838;2.322;2023-08-30T07:47:55;2.80;;;2.60;;
819;SDS011;392;48.838;2.322;2023-08-30T07:50:23;2.37;;;2.20;;
819;SDS011;392;48.838;2.322;2023-08-30T07:52:50;3.20;;;3.00;;
819;SDS011;392;48.838;2.322;2023-08-30T07:55:17;2.70;;;2.50;;
819;SDS011;392;48.838;2.322;2023-08-30T07:57:45;2.67;;;2.47;;
819;SDS011;392;48.838;2.322;2023-08-30T08:00:13;2.93;;;2.73;;
819;SDS011;392;48.838;2.322;2023-08-30T08:02:44;2.40;;;2.30;;
819;SDS011;392;48.838;2.322;2023-08-30T08:05:11;2.83;;;2.63;;
819;SDS011;392;48.838;2.322;2023-08-30T08:07:39;2.50;;;2.30;;
819;SDS011;392;48.838;2.322;2023-08-30T08:10:09;2.47;;;2.37;;
819;SDS011;392;48.838;2.322;2023-08-30T08:12:36;2.93;;;2.50;;
819;SDS011;392;48.838;2.322;2023-08-30T08:15:06;3.17;;;2.90;;
819;SDS011;392;48.838;2.322;2023-08-30T08:17:33;2.60;;;2.40;;
819;SDS011;392;48.838;2.322;2023-08-30T08:20:01;2.77;;;2.43;;
819;SDS011;392;48.838;2.322;2023-08-30T08:22:30;2.50;;;2.30;;
819;SDS011;392;48.838;2.322;2023-08-30T08:24:58;7.30;;;3.50;;
819;SDS011;392;48.838;2.322;2023-08-30T08:27:25;2.60;;;2.50;;
819;SDS011;392;48.838;2.322;2023-08-30T08:29:52;2.93;;;2.83;;
819;SDS011;392;48.838;2.322;2023-08-30T08:32:21;2.50;;;2.33;;
819;SDS011;392;48.838;2.322;2023-08-30T08:34:49;3.00;;;2.80;;
819;SDS011;392;48.838;2.322;2023-08-30T08:37:16;2.70;;;2.60;;
819;SDS011;392;48.838;2.322;2023-08-30T08:39:43;3.53;;;2.43;;
819;SDS011;392;48.838;2.322;2023-08-30T08:42:11;2.87;;;2.67;;
819;SDS011;392;48.838;2.322;2023-08-30T08:44:42;3.27;;;3.03;;
819;SDS011;392;48.838;2.322;2023-08-30T08:47:12;3.60;;;2.70;;
819;SDS011;392;48.838;2.322;2023-08-30T08:49:42;3.73;;;3.43;;
819;SDS011;392;48.838;2.322;2023-08-30T08:52:10;3.43;;;3.13;;
819;SDS011;392;48.838;2.322;2023-08-30T08:54:38;2.90;;;2.70;;
819;SDS011;392;48.838;2.322;2023-08-30T08:57:06;3.20;;;2.97;;
819;SDS011;392;48.838;2.322;2023-08-30T08:59:34;3.63;;;2.80;;
819;SDS011;392;48.838;2.322;2023-08-30T09:02:02;3.90;;;2.60;;
819;SDS011;392;48.838;2.322;2023-08-30T09:04:30;2.97;;;2.70;;
819;SDS011;392;48.838;2.322;2023-08-30T09:06:59;3.57;;;2.67;;
819;SDS011;392;48.838;2.322;2023-08-30T09:09:27;2.70;;;2.50;;
819;SDS011;392;48.838;2.322;2023-08-30T09:11:56;2.40;;;2.20;;
819;SDS011;392;48.838;2.322;2023-08-30T09:14:23;3.00;;;2.77;;
819;SDS011;392;48.838;2.322;2023-08-30T09:16:54;3.50;;;3.20;;
819;SDS011;392;48.838;2.322;2023-08-30T09:19:22;3.00;;;2.67;;
819;SDS011;392;48.838;2.322;2023-08-30T09:21:52;3.00;;;2.80;;
819;SDS011;392;48.838;2.322;2023-08-30T09:24:21;3.17;;;2.93;;
819;SDS011;392;48.838;2.322;2023-08-30T09:26:49;3.17;;;3.07;;
819;SDS011;392;48.838;2.322;2023-08-30T09:29:19;4.30;;;2.60;;
819;SDS011;392;48.838;2.322;2023-08-30T09:31:50;3.33;;;2.77;;
819;SDS011;392;48.838;2.322;2023-08-30T09:34:21;3.47;;;2.97;;
819;SDS011;392;48.838;2.322;2023-08-30T09:36:50;3.00;;;2.80;;
819;SDS011;392;48.838;2.322;2023-08-30T09:39:18;3.27;;;2.97;;
819;SDS011;392;48.838;2.322;2023-08-30T09:41:47;2.83;;;2.63;;
819;SDS011;392;48.838;2.322;2023-08-30T09:44:16;3.73;;;2.70;;
819;SDS011;392;48.838;2.322;2023-08-30T09:46:47;3.27;;;2.63;;
819;SDS011;392;48.838;2.322;2023-08-30T09:49:18;3.10;;;2.90;;
819;SDS011;392;48.838;2.322;2023-08-30T09:51:48;3.23;;;3.03;;
819;SDS011;392;48.838;2.322;2023-08-30T09:54:17;3.70;;;3.40;;
819;SDS011;392;48.838;2.322;2023-08-30T09:56:48;3.83;;;3.47;;
819;SDS011;392;48.838;2.322;2023-08-30T09:59:18;3.80;;;3.40;;
819;SDS011;392;48.838;2.322;2023-08-30T10:01:46;3.20;;;3.00;;
819;SDS011;392;48.838;2.322;2023-08-30T10:04:14;3.73;;;3.47;;
819;SDS011;392;48.838;2.322;2023-08-30T10:06:42;3.50;;;3.23;;
819;SDS011;392;48.838;2.322;2023-08-30T10:09:10;3.73;;;3.50;;
819;SDS011;392;48.838;2.322;2023-08-30T10:11:39;4.30;;;4.00;;
819;SDS011;392;48.838;2.322;2023-08-30T10:14:06;4.30;;;4.00;;
819;SDS011;392;48.838;2.322;2023-08-30T10:16:36;4.50;;;4.20;;
819;SDS011;392;48.838;2.322;2023-08-30T10:19:10;3.87;;;3.47;;
819;SDS011;392;48.838;2.322;2023-08-30T10:21:41;4.07;;;3.80;;
819;SDS011;392;48.838;2.322;2023-08-30T10:24:11;3.93;;;3.23;;
819;SDS011;392;48.838;2.322;2023-08-30T10:26:43;4.27;;;3.97;;
819;SDS011;392;48.838;2.322;2023-08-30T10:29:12;3.87;;;3.57;;
819;SDS011;392;48.838;2.322;2023-08-30T10:31:41;4.40;;;3.90;;
819;SDS011;392;48.838;2.322;2023-08-30T10:34:13;3.93;;;3.63;;
819;SDS011;392;48.838;2.322;2023-08-30T10:36:42;4.50;;;4.10;;
819;SDS011;392;48.838;2.322;2023-08-30T10:39:13;4.40;;;4.20;;
819;SDS011;392;48.838;2.322;2023-08-30T10:41:56;4.97;;;4.43;;
819;SDS011;392;48.838;2.322;2023-08-30T10:44:24;4.97;;;4.57;;
819;SDS011;392;48.838;2.322;2023-08-30T10:46:51;3.80;;;3.57;;
819;SDS011;392;48.838;2.322;2023-08-30T10:49:19;4.73;;;4.43;;
819;SDS011;392;48.838;2.322;2023-08-30T10:51:54;4.90;;;4.60;;
819;SDS011;392;48.838;2.322;2023-08-30T10:54:22;5.47;;;5.17;;
819;SDS011;392;48.838;2.322;2023-08-30T10:56:54;4.80;;;4.40;;
819;SDS011;392;48.838;2.322;2023-08-30T10:59:26;8.40;;;7.70;;
819;SDS011;392;48.838;2.322;2023-08-30T11:01:54;7.50;;;6.90;;
819;SDS011;392;48.838;2.322;2023-08-30T11:04:22;5.23;;;4.73;;
819;SDS011;392;48.838;2.322;2023-08-30T11:06:51;5.87;;;5.43;;
819;SDS011;392;48.838;2.322;2023-08-30T11:09:19;5.93;;;5.57;;
819;SDS011;392;48.838;2.322;2023-08-30T11:11:49;5.67;;;5.37;;
819;SDS011;392;48.838;2.322;2023-08-30T11:14:19;5.80;;;5.30;;
819;SDS011;392;48.838;2.322;2023-08-30T11:16:46;4.60;;;4.30;;
819;SDS011;392;48.838;2.322;2023-08-30T11:19:14;5.37;;;4.87;;
819;SDS011;392;48.838;2.322;2023-08-30T11:21:43;5.07;;;4.67;;
819;SDS011;392;48.838;2.322;2023-08-30T11:24:11;4.80;;;4.50;;
819;SDS011;392;48.838;2.322;2023-08-30T11:26:39;5.77;;;5.27;;
819;SDS011;392;48.838;2.322;2023-08-30T11:29:07;6.90;;;6.30;;
819;SDS011;392;48.838;2.322;2023-08-30T11:31:36;7.20;;;6.50;;
819;SDS011;392;48.838;2.322;2023-08-30T11:34:04;11.70;;;8.47;;
819;SDS011;392;48.838;2.322;2023-08-30T11:36:31;6.80;;;6.40;;
819;SDS011;392;48.838;2.322;2023-08-30T11:39:01;6.43;;;5.83;;
819;SDS011;392;48.838;2.322;2023-08-30T11:41:29;6.67;;;6.27;;
819;SDS011;392;48.838;2.322;2023-08-30T11:43:58;6.37;;;5.97;;
819;SDS011;392;48.838;2.322;2023-08-30T11:46:25;7.50;;;7.00;;
819;SDS011;392;48.838;2.322;2023-08-30T11:48:54;8.37;;;7.67;;
819;SDS011;392;48.838;2.322;2023-08-30T11:51:22;8.07;;;7.67;;
819;SDS011;392;48.838;2.322;2023-08-30T11:53:49;6.73;;;6.33;;
819;SDS011;392;48.838;2.322;2023-08-30T11:56:17;4.80;;;4.60;;
819;SDS011;392;48.838;2.322;2023-08-30T11:58:44;5.60;;;5.27;;
819;SDS011;392;48.838;2.322;2023-08-30T12:01:12;4.30;;;4.00;;
819;SDS011;392;48.838;2.322;2023-08-30T12:03:40;5.73;;;5.30;;
819;SDS011;392;48.838;2.322;2023-08-30T12:06:12;5.63;;;5.30;;
819;SDS011;392;48.838;2.322;2023-08-30T12:08:39;6.13;;;5.53;;
819;SDS011;392;48.838;2.322;2023-08-30T12:11:16;5.73;;;5.43;;
819;SDS011;392;48.838;2.322;2023-08-30T12:13:45;5.97;;;5.57;;
819;SDS011;392;48.838;2.322;2023-08-30T12:16:16;5.27;;;4.77;;
819;SDS011;392;48.838;2.322;2023-08-30T12:18:45;5.07;;;4.67;;
819;SDS011;392;48.838;2.322;2023-08-30T12:21:14;4.43;;;4.13;;
819;SDS011;392;48.838;2.322;2023-08-30T12:23:41;4.20;;;3.90;;
819;SDS011;392;48.838;2.322;2023-08-30T12:26:10;4.57;;;4.23;;
819;SDS011;392;48.838;2.322;2023-08-30T12:28:37;3.77;;;3.57;;
819;SDS011;392;48.838;2.322;2023-08-30T12:31:06;4.80;;;4.30;;
819;SDS011;392;48.838;2.322;2023-08-30T12:33:34;3.70;;;3.50;;
819;SDS011;392;48.838;2.322;2023-08-30T12:36:01;4.10;;;3.80;;
819;SDS011;392;48.838;2.322;2023-08-30T12:38:31;4.23;;;3.20;;
819;SDS011;392;48.838;2.322;2023-08-30T12:40:58;3.50;;;3.20;;
819;SDS011;392;48.838;2.322;2023-08-30T12:43:26;3.30;;;3.17;;
819;SDS011;392;48.838;2.322;2023-08-30T12:45:53;3.50;;;3.30;;
819;SDS011;392;48.838;2.322;2023-08-30T12:48:21;4.60;;;4.20;;
819;SDS011;392;48.838;2.322;2023-08-30T12:50:48;4.10;;;3.80;;
819;SDS011;392;48.838;2.322;2023-08-30T12:53:15;4.00;;;3.70;;
819;SDS011;392;48.838;2.322;2023-08-30T12:55:44;3.80;;;3.50;;
819;SDS011;392;48.838;2.322;2023-08-30T12:58:12;4.80;;;3.87;;
819;SDS011;392;48.838;2.322;2023-08-30T13:00:39;5.33;;;3.80;;
819;SDS011;392;48.838;2.322;2023-08-30T13:03:07;4.63;;;4.33;;
819;SDS011;392;48.838;2.322;2023-08-30T13:05:34;4.13;;;3.73;;
819;SDS011;392;48.838;2.322;2023-08-30T13:08:02;3.73;;;3.43;;
819;SDS011;392;48.838;2.322;2023-08-30T13:10:30;4.33;;;4.03;;
819;SDS011;392;48.838;2.322;2023-08-30T13:12:59;4.70;;;4.20;;
819;SDS011;392;48.838;2.322;2023-08-30T13:15:26;3.17;;;3.00;;
819;SDS011;392;48.838;2.322;2023-08-30T13:17:53;3.93;;;3.63;;
819;SDS011;392;48.838;2.322;2023-08-30T13:20:21;3.83;;;3.53;;
819;SDS011;392;48.838;2.322;2023-08-30T13:22:48;4.87;;;4.20;;
819;SDS011;392;48.838;2.322;2023-08-30T13:25:16;6.77;;;4.10;;
819;SDS011;392;48.838;2.322;2023-08-30T13:27:43;3.80;;;3.50;;
819;SDS011;392;48.838;2.322;2023-08-30T13:30:12;3.80;;;3.50;;
819;SDS011;392;48.838;2.322;2023-08-30T13:32:39;3.70;;;3.50;;
819;SDS011;392;48.838;2.322;2023-08-30T13:35:07;4.30;;;3.90;;
819;SDS011;392;48.838;2.322;2023-08-30T13:37:35;4.87;;;4.57;;
819;SDS011;392;48.838;2.322;2023-08-30T13:40:02;3.57;;;3.27;;
819;SDS011;392;48.838;2.322;2023-08-30T13:42:31;3.63;;;3.30;;
819;SDS011;392;48.838;2.322;2023-08-30T13:44:58;4.50;;;4.10;;
819;SDS011;392;48.838;2.322;2023-08-30T13:47:27;3.93;;;3.63;;
819;SDS011;392;48.838;2.322;2023-08-30T13:49:54;4.27;;;3.87;;
819;SDS011;392;48.838;2.322;2023-08-30T13:52:22;3.80;;;3.50;;
819;SDS011;392;48.838;2.322;2023-08-30T13:54:49;4.23;;;3.93;;
819;SDS011;392;48.838;2.322;2023-08-30T13:57:17;3.90;;;3.60;;
819;SDS011;392;48.838;2.322;2023-08-30T13:59:44;4.20;;;3.80;;
819;SDS011;392;48.838;2.322;2023-08-30T14:02:12;4.03;;;3.20;;
819;SDS011;392;48.838;2.322;2023-08-30T14:04:41;4.37;;;3.97;;
819;SDS011;392;48.838;2.322;2023-08-30T14:07:08;6.03;;;4.10;;
819;SDS011;392;48.838;2.322;2023-08-30T14:09:37;4.00;;;3.70;;
819;SDS011;392;48.838;2.322;2023-08-30T14:12:04;4.70;;;3.80;;
819;SDS011;392;48.838;2.322;2023-08-30T14:14:32;4.30;;;3.27;;
819;SDS011;392;48.838;2.322;2023-08-30T14:16:59;4.60;;;3.67;;
819;SDS011;392;48.838;2.322;2023-08-30T14:19:27;7.63;;;6.87;;
819;SDS011;392;48.838;2.322;2023-08-30T14:21:56;4.40;;;4.10;;
819;SDS011;392;48.838;2.322;2023-08-30T14:24:23;4.00;;;3.27;;
819;SDS011;392;48.838;2.322;2023-08-30T14:26:50;5.10;;;3.83;;
819;SDS011;392;48.838;2.322;2023-08-30T14:29:19;4.03;;;3.73;;
819;SDS011;392;48.838;2.322;2023-08-30T14:31:47;3.70;;;3.43;;
819;SDS011;392;48.838;2.322;2023-08-30T14:34:15;4.40;;;4.10;;
819;SDS011;392;48.838;2.322;2023-08-30T14:36:42;3.80;;;3.40;;
819;SDS011;392;48.838;2.322;2023-08-30T14:39:12;4.00;;;3.70;;
819;SDS011;392;48.838;2.322;2023-08-30T14:41:39;4.10;;;3.80;;
819;SDS011;392;48.838;2.322;2023-08-30T14:44:07;4.30;;;3.90;;
819;SDS011;392;48.838;2.322;2023-08-30T14:46:34;3.67;;;3.37;;
819;SDS011;392;48.838;2.322;2023-08-30T14:49:02;4.10;;;3.80;;
819;SDS011;392;48.838;2.322;2023-08-30T14:51:29;5.40;;;4.90;;
819;SDS011;392;48.838;2.322;2023-08-30T14:53:56;4.77;;;4.37;;
819;SDS011;392;48.838;2.322;2023-08-30T14:56:25;4.20;;;3.90;;
819;SDS011;392;48.838;2.322;2023-08-30T14:58:52;5.00;;;4.60;;
819;SDS011;392;48.838;2.322;2023-08-30T15:01:20;6.10;;;4.17;;
819;SDS011;392;48.838;2.322;2023-08-30T15:03:47;4.37;;;3.97;;
819;SDS011;392;48.838;2.322;2023-08-30T15:06:14;3.70;;;3.40;;
819;SDS011;392;48.838;2.322;2023-08-30T15:08:41;5.00;;;4.50;;
819;SDS011;392;48.838;2.322;2023-08-30T15:11:09;3.53;;;3.27;;
819;SDS011;392;48.838;2.322;2023-08-30T15:13:38;4.87;;;3.67;;
819;SDS011;392;48.838;2.322;2023-08-30T15:16:05;3.50;;;3.30;;
819;SDS011;392;48.838;2.322;2023-08-30T15:18:32;3.40;;;3.20;;
819;SDS011;392;48.838;2.322;2023-08-30T15:20:59;3.97;;;3.30;;
819;SDS011;392;48.838;2.322;2023-08-30T15:23:27;3.73;;;3.43;;
819;SDS011;392;48.838;2.322;2023-08-30T15:25:54;4.20;;;3.70;;
819;SDS011;392;48.838;2.322;2023-08-30T15:28:22;5.80;;;4.10;;
819;SDS011;392;48.838;2.322;2023-08-30T15:30:52;3.30;;;3.00;;
819;SDS011;392;48.838;2.322;2023-08-30T15:33:20;3.50;;;3.20;;
819;SDS011;392;48.838;2.322;2023-08-30T15:35:49;4.43;;;3.97;;
819;SDS011;392;48.838;2.322;2023-08-30T15:38:17;3.60;;;3.30;;
819;SDS011;392;48.838;2.322;2023-08-30T15:40:44;4.00;;;3.20;;
819;SDS011;392;48.838;2.322;2023-08-30T15:43:11;4.10;;;3.80;;
819;SDS011;392;48.838;2.322;2023-08-30T15:45:39;2.97;;;2.87;;
819;SDS011;392;48.838;2.322;2023-08-30T15:48:09;3.30;;;3.00;;
819;SDS011;392;48.838;2.322;2023-08-30T15:50:36;3.40;;;3.10;;
819;SDS011;392;48.838;2.322;2023-08-30T15:53:04;3.53;;;3.30;;